CET,Max TemperatureF,Mean TemperatureF,Min TemperatureF,Max Dew PointF,MeanDew PointF,Min DewpointF,Max Humidity, Mean Humidity, Min Humidity, Max Sea Level PressureIn, Mean Sea Level PressureIn, Min Sea Level PressureIn, Max VisibilityMiles, Mean VisibilityMiles, Min VisibilityMiles, Max Wind SpeedMPH, Mean Wind SpeedMPH, Max Gust SpeedMPH,PrecipitationIn, CloudCover, Events, WindDirDegrees
2011-11-1,66,60,55,57,53,50,100,77,60,30.04,29.99,29.95,6,6,2,14,4,,0.00,3,Rain,177
2011-11-2,66,63,60,55,52,50,77,66,56,29.95,29.73,29.59,6,6,5,28,19,44,0.00,3,Rain,146
2011-11-3,62,56,51,55,50,43,94,75,67,29.59,29.48,29.42,6,6,1,33,20,53,0.00,3,Rain,173
2011-11-4,59,55,51,50,48,43,88,79,63,29.50,29.45,29.42,6,6,4,14,8,22,0.00,4,Rain,193
2011-11-5,53,50,48,50,47,45,100,86,72,29.80,29.66,29.44,6,6,2,20,10,,0.00,6,Rain,328
2011-11-6,55,52,50,52,50,46,94,89,82,30.01,29.92,29.80,6,6,3,22,15,36,0.00,6,Rain,325
2011-11-7,55,53,51,54,51,50,100,92,82,30.01,29.98,29.95,6,5,1,15,9,,0.00,6,Rain,336
2011-11-8,62,55,48,52,49,46,100,84,55,30.01,29.97,29.95,6,5,2,6,0,,0.00,3,,149
2011-11-9,62,53,44,50,48,45,100,80,59,30.09,30.05,30.01,6,6,5,7,1,,0.00,3,Rain,159
2011-11-10,64,58,51,54,50,48,94,77,56,30.09,30.03,29.98,6,6,4,9,5,,0.00,2,Rain,166
2011-11-11,68,62,55,52,50,48,82,68,52,30.12,30.03,29.95,6,6,6,14,9,,0.00,2,,141
2011-11-12,69,58,46,55,51,46,100,70,49,30.24,30.19,30.12,6,6,6,20,7,,0.00,1,,143
2011-11-13,66,62,57,52,50,48,77,65,56,30.24,30.21,30.18,6,6,6,20,9,31,0.00,5,,147
2011-11-14,60,58,57,52,50,48,77,71,63,30.15,30.02,29.92,6,6,6,21,13,,0.00,6,,123
2011-11-15,59,54,46,50,45,45,93,74,59,29.95,29.92,29.89,6,6,6,12,7,,0.00,4,Rain,137
2011-11-16,59,52,44,50,46,43,100,81,59,30.18,30.09,29.95,6,6,6,4,1,,0.00,4,,271
2011-11-17,60,50,39,48,45,39,100,85,63,30.24,30.21,30.18,6,6,5,4,1,,0.00,2,,189
2011-11-18,60,51,42,48,45,41,100,76,59,30.21,30.06,29.98,6,6,5,18,6,,0.00,4,,143
2011-11-19,60,55,50,46,43,41,82,64,51,29.98,29.92,29.89,6,6,6,14,10,26,0.00,4,,133
2011-11-20,60,56,51,50,49,45,88,73,63,29.98,29.96,29.92,6,6,6,13,6,,0.00,4,,133
2011-11-21,62,54,46,50,48,45,100,81,59,29.98,29.89,29.86,6,6,6,4,1,,0.00,3,,164
2011-11-22,55,48,41,52,47,41,100,89,77,30.12,29.99,29.86,6,6,3,15,3,,0.00,5,Fog-Rain,336
2011-11-23,62,56,51,50,48,46,88,76,59,30.36,30.28,30.12,6,6,6,18,9,,0.00,3,Fog,354
2011-11-24,62,52,42,48,45,41,100,79,52,30.39,30.36,30.30,6,6,5,7,2,,0.00,1,,170
2011-11-25,57,45,33,46,42,34,100,84,63,30.51,30.46,30.39,6,5,0,18,4,,0.00,1,Fog,351
2011-11-26,59,50,41,45,40,37,87,68,45,30.48,30.43,30.36,6,6,6,17,10,,0.00,1,,326
2011-11-27,55,44,33,43,39,34,100,82,58,30.39,30.35,30.30,,,,12,2,,0.00,,,312
2011-11-28,42,37,32,41,38,32,100,97,93,30.33,30.28,30.24,6,3,0,6,1,,0.00,8,Fog-Tornado,60
2011-11-29,44,42,39,41,40,39,100,93,87,30.33,30.27,30.24,6,6,6,7,4,,0.00,7,,98
2011-11-30,44,40,37,41,39,37,100,94,81,30.39,30.36,30.33,6,4,0,8,1,,0.00,6,Fog,114